Time;durP1;ratioP1;P1;durP2;ratioP2;P2;SDS_P1;SDS_P2;PMS_P1;PMS_P2;Temp;Humidity;BMP_temperature;BMP_pressure;BME280_temperature;BME280_humidity;BME280_pressure;Samples;Min_cycle;Max_cycle;Signal;HPM_P1;HPM_P2
2023/03/22 00:00:43;;;;;;;0.90;0.90;;;9.80;99.90;;;;;;5011572;28;20196;-67
2023/03/22 00:03:09;;;;;;;1.63;1.52;;;9.80;99.90;;;;;;4999640;28;20074;-67
2023/03/22 00:05:35;;;;;;;0.15;0.15;;;9.80;99.90;;;;;;5003222;28;20046;-67
2023/03/22 00:08:04;;;;;;;0.88;0.88;;;9.80;99.90;;;;;;5008839;28;20468;-67
2023/03/22 00:10:30;;;;;;;0.25;0.25;;;9.80;99.90;;;;;;4994323;28;20062;-67
2023/03/22 00:12:56;;;;;;;2.17;0.68;;;9.70;99.90;;;;;;5010555;28;20616;-67
2023/03/22 00:15:22;;;;;;;0.65;0.65;;;9.70;99.90;;;;;;5011989;28;20064;-68
2023/03/22 00:17:49;;;;;;;0.38;0.38;;;9.70;99.90;;;;;;4998626;28;20048;-67
2023/03/22 00:20:16;;;;;;;0.30;0.30;;;9.70;99.90;;;;;;5004767;28;20046;-67
2023/03/22 00:22:42;;;;;;;0.50;0.20;;;9.70;99.90;;;;;;5003145;28;20042;-67
2023/03/22 00:25:09;;;;;;;1.52;1.38;;;9.70;99.90;;;;;;5000223;28;20133;-67
2023/03/22 00:27:34;;;;;;;0.10;0.10;;;9.70;99.90;;;;;;5003106;28;20042;-68
2023/03/22 00:30:01;;;;;;;4.20;0.75;;;9.70;99.90;;;;;;5011415;28;20553;-68
2023/03/22 00:32:26;;;;;;;0.90;0.90;;;9.70;99.90;;;;;;5012573;28;20092;-67
2023/03/22 00:34:52;;;;;;;0.77;0.77;;;9.70;99.90;;;;;;5002141;28;20042;-67
2023/03/22 00:37:17;;;;;;;0.20;0.20;;;9.70;99.90;;;;;;5007949;28;20056;-67
2023/03/22 00:39:43;;;;;;;0.10;0.10;;;9.60;99.90;;;;;;5012448;28;20888;-67
2023/03/22 00:42:09;;;;;;;5.05;2.28;;;9.70;99.90;;;;;;5005380;28;20042;-67
2023/03/22 00:44:35;;;;;;;1.25;1.15;;;9.70;99.90;;;;;;5002444;28;20299;-67
2023/03/22 00:47:01;;;;;;;1.85;1.08;;;9.70;99.90;;;;;;5010326;28;20104;-67
2023/03/22 00:49:28;;;;;;;0.40;0.40;;;9.70;99.90;;;;;;4999377;28;20123;-67
2023/03/22 00:51:53;;;;;;;0.20;0.20;;;9.70;99.90;;;;;;5004687;28;20054;-67
2023/03/22 00:54:20;;;;;;;1.30;1.25;;;9.70;99.90;;;;;;5002026;28;20379;-67
2023/03/22 00:56:45;;;;;;;0.10;0.10;;;9.70;99.90;;;;;;5008151;28;20091;-67
2023/03/22 00:59:12;;;;;;;0.90;0.90;;;9.70;99.90;;;;;;5000094;28;20469;-67
2023/03/22 01:01:38;;;;;;;0.10;0.10;;;9.70;99.90;;;;;;4997539;28;20065;-67
2023/03/22 01:04:04;;;;;;;0.10;0.10;;;9.60;99.90;;;;;;5007912;28;20523;-67
2023/03/22 01:06:31;;;;;;;0.00;0.00;;;9.60;99.90;;;;;;5004086;28;20041;-67
2023/03/22 01:08:57;;;;;;;1.45;1.35;;;9.70;99.90;;;;;;5000494;28;20441;-67
2023/03/22 01:11:23;;;;;;;0.43;0.43;;;9.60;99.90;;;;;;4993629;28;20041;-67
2023/03/22 01:13:48;;;;;;;0.10;0.10;;;9.70;99.90;;;;;;4998270;28;20402;-67
2023/03/22 01:16:15;;;;;;;0.10;0.10;;;9.70;99.90;;;;;;5004809;28;20038;-67
2023/03/22 01:18:40;;;;;;;0.30;0.30;;;9.60;99.90;;;;;;4999274;28;20049;-67
2023/03/22 01:21:06;;;;;;;2.92;1.27;;;9.60;99.90;;;;;;5008779;28;20045;-67
2023/03/22 01:23:32;;;;;;;12.32;1.25;;;9.60;99.90;;;;;;5011402;28;20050;-67
2023/03/22 01:25:58;;;;;;;0.00;0.00;;;9.60;99.90;;;;;;5007697;28;20080;-67
2023/03/22 01:28:23;;;;;;;0.10;0.10;;;9.60;99.90;;;;;;4997364;28;20049;-67
2023/03/22 01:30:50;;;;;;;0.10;0.10;;;9.60;99.90;;;;;;5007090;28;20103;-67
2023/03/22 01:33:16;;;;;;;0.10;0.10;;;9.60;99.90;;;;;;5010942;28;20366;-67
2023/03/22 01:35:41;;;;;;;0.10;0.10;;;9.60;99.90;;;;;;4999722;28;20081;-67
2023/03/22 01:38:07;;;;;;;0.20;0.20;;;9.50;99.90;;;;;;5001425;28;20042;-67
2023/03/22 01:40:33;;;;;;;0.10;0.10;;;9.50;99.90;;;;;;5009983;28;20140;-67
2023/03/22 01:42:59;;;;;;;0.10;0.10;;;9.50;99.90;;;;;;5010156;28;20125;-67
2023/03/22 01:45:44;;;;;;;0.17;0.17;;;9.50;99.90;;;;;;4995460;28;20136;-67
2023/03/22 01:48:12;;;;;;;3.13;1.15;;;9.50;99.90;;;;;;4997931;28;20496;-67
2023/03/22 01:50:41;;;;;;;4.65;1.95;;;9.50;99.90;;;;;;5002073;28;20053;-67
2023/03/22 01:53:09;;;;;;;0.00;0.00;;;9.50;99.90;;;;;;5004080;28;20400;-67
2023/03/22 01:55:36;;;;;;;0.35;0.32;;;9.50;99.90;;;;;;5010162;28;20559;-67
2023/03/22 01:58:03;;;;;;;2.20;1.35;;;9.50;99.90;;;;;;5001842;28;20046;-67
2023/03/22 02:00:29;;;;;;;2.05;0.82;;;9.40;99.90;;;;;;4997370;28;20554;-67
2023/03/22 02:02:54;;;;;;;0.20;0.20;;;9.50;99.90;;;;;;5009295;28;20041;-67
2023/03/22 02:05:23;;;;;;;0.20;0.20;;;9.50;99.90;;;;;;4992023;28;20053;-67
2023/03/22 02:07:49;;;;;;;0.00;0.00;;;9.50;99.90;;;;;;4994339;28;20042;-67
2023/03/22 02:10:23;;;;;;;3.20;1.35;;;9.60;99.90;;;;;;5001403;28;20046;-67
2023/03/22 02:13:06;;;;;;;0.10;0.10;;;9.50;99.90;;;;;;5004778;28;20062;-67
2023/03/22 02:15:48;;;;;;;0.25;0.25;;;9.50;99.90;;;;;;5008776;28;20067;-67
2023/03/22 02:18:35;;;;;;;0.10;0.10;;;9.50;99.90;;;;;;5009994;28;20091;-67
2023/03/22 02:21:24;;;;;;;0.10;0.10;;;9.50;99.90;;;;;;4995994;28;20065;-67
2023/03/22 02:24:14;;;;;;;0.10;0.10;;;9.50;99.90;;;;;;4991905;28;20038;-67
2023/03/22 02:27:15;;;;;;;0.10;0.10;;;9.50;99.90;;;;;;5003339;28;20081;-67
2023/03/22 02:29:54;;;;;;;0.10;0.10;;;9.50;99.90;;;;;;4997574;28;20054;-67
2023/03/22 02:32:46;;;;;;;0.10;0.10;;;9.50;99.90;;;;;;5001414;28;20061;-67
2023/03/22 02:35:36;;;;;;;0.10;0.10;;;9.50;99.90;;;;;;5000368;28;20042;-67
2023/03/22 02:38:07;;;;;;;0.00;0.00;;;9.50;99.90;;;;;;4991675;28;20055;-67
2023/03/22 02:40:51;;;;;;;0.00;0.00;;;9.50;99.90;;;;;;5007444;28;20145;-67
2023/03/22 02:43:22;;;;;;;;;;;9.50;99.90;;;;;;5006821;28;20473;-67
2023/03/22 02:46:03;;;;;;;0.10;0.10;;;9.50;99.90;;;;;;5000738;28;20099;-67
2023/03/22 02:48:50;;;;;;;0.10;0.10;;;9.50;99.90;;;;;;5008999;28;20060;-67
2023/03/22 02:51:31;;;;;;;2.40;2.17;;;9.60;99.90;;;;;;5001119;28;20402;-67
2023/03/22 02:54:03;;;;;;;0.10;0.10;;;9.60;99.90;;;;;;4999332;28;20579;-67
2023/03/22 02:56:38;;;;;;;0.40;0.40;;;9.70;99.90;;;;;;5008210;28;20077;-67
2023/03/22 02:59:06;;;;;;;0.00;0.00;;;9.70;99.90;;;;;;5012005;28;20049;-67
2023/03/22 03:01:38;;;;;;;0.10;0.10;;;9.80;99.90;;;;;;4998778;28;20058;-68
2023/03/22 03:04:09;;;;;;;0.10;0.10;;;9.80;99.90;;;;;;5014243;28;20128;-67
2023/03/22 03:06:39;;;;;;;0.10;0.10;;;9.80;99.90;;;;;;5003609;28;20099;-67
2023/03/22 03:09:05;;;;;;;0.10;0.10;;;9.80;99.90;;;;;;4993773;28;20034;-67
2023/03/22 03:11:31;;;;;;;0.10;0.10;;;9.80;99.90;;;;;;5002226;28;20045;-67
2023/03/22 03:13:57;;;;;;;0.10;0.10;;;9.80;99.90;;;;;;5013962;28;20038;-67
2023/03/22 03:16:28;;;;;;;0.50;0.50;;;9.80;99.90;;;;;;5002323;28;20512;-67
2023/03/22 03:19:01;;;;;;;0.10;0.10;;;9.80;99.90;;;;;;4997888;28;20060;-67
2023/03/22 03:21:45;;;;;;;0.10;0.10;;;9.80;99.90;;;;;;5004737;28;20042;-67
2023/03/22 03:24:43;;;;;;;0.10;0.10;;;9.80;99.90;;;;;;4996152;28;20081;-67
2023/03/22 03:27:09;;;;;;;0.22;0.22;;;9.80;99.90;;;;;;5003492;28;20050;-67
2023/03/22 03:29:58;;;;;;;0.47;0.47;;;9.80;99.90;;;;;;5013162;28;20049;-67
2023/03/22 03:32:46;;;;;;;0.10;0.10;;;9.80;99.90;;;;;;5000190;28;20114;-67
2023/03/22 03:35:32;;;;;;;0.10;0.10;;;9.80;99.90;;;;;;5000062;28;20069;-67
2023/03/22 03:38:13;;;;;;;0.10;0.10;;;9.80;99.90;;;;;;4999019;28;20441;-67
2023/03/22 03:40:53;;;;;;;0.40;0.40;;;9.90;99.90;;;;;;5009631;28;20041;-67
2023/03/22 03:43:19;;;;;;;0.38;0.38;;;9.90;99.90;;;;;;5004405;28;20061;-67
2023/03/22 03:45:45;;;;;;;0.10;0.10;;;9.90;99.90;;;;;;5004533;28;20505;-67
2023/03/22 03:48:19;;;;;;;0.10;0.10;;;9.90;99.90;;;;;;5012634;28;20057;-67
2023/03/22 03:50:47;;;;;;;0.13;0.13;;;9.90;99.90;;;;;;4997796;28;20052;-67
2023/03/22 03:53:12;;;;;;;0.13;0.13;;;9.90;99.90;;;;;;4996354;28;20790;-67
2023/03/22 03:55:38;;;;;;;0.00;0.00;;;9.90;99.90;;;;;;5007231;28;20049;-67
2023/03/22 03:58:03;;;;;;;1.20;1.17;;;9.90;99.90;;;;;;5012217;28;20125;-67
2023/03/22 04:00:29;;;;;;;0.08;0.08;;;9.90;99.90;;;;;;5002043;28;20054;-67
2023/03/22 04:02:55;;;;;;;0.10;0.10;;;9.90;99.90;;;;;;5009574;28;20520;-67
2023/03/22 04:05:21;;;;;;;0.10;0.10;;;9.90;99.90;;;;;;4998085;28;20033;-67
2023/03/22 04:07:46;;;;;;;0.10;0.10;;;9.90;99.90;;;;;;4997672;28;20490;-67
2023/03/22 04:10:12;;;;;;;0.00;0.00;;;9.90;99.90;;;;;;5008043;28;20454;-67
2023/03/22 04:12:37;;;;;;;0.10;0.10;;;9.90;99.90;;;;;;4999837;28;20117;-67
2023/03/22 04:15:03;;;;;;;0.10;0.10;;;9.90;99.90;;;;;;5011287;28;20539;-67
2023/03/22 04:17:30;;;;;;;0.10;0.10;;;9.90;99.90;;;;;;5012700;28;20046;-67
2023/03/22 04:19:56;;;;;;;0.00;0.00;;;9.90;99.90;;;;;;4994194;28;20553;-67
2023/03/22 04:22:23;;;;;;;0.00;0.00;;;9.90;99.90;;;;;;4991391;28;20441;-67
2023/03/22 04:24:51;;;;;;;0.40;0.40;;;9.90;99.90;;;;;;4997510;28;20388;-67
2023/03/22 04:27:18;;;;;;;0.10;0.10;;;9.90;99.90;;;;;;5005732;28;20038;-68
2023/03/22 04:29:47;;;;;;;0.05;0.05;;;9.90;99.90;;;;;;5011989;28;20424;-67
2023/03/22 04:32:17;;;;;;;0.10;0.10;;;9.90;99.90;;;;;;5011252;28;20129;-67
2023/03/22 04:34:45;;;;;;;0.20;0.20;;;9.90;99.90;;;;;;5008799;28;20694;-67
2023/03/22 04:37:11;;;;;;;0.10;0.10;;;10.00;99.90;;;;;;5011687;28;20041;-67
2023/03/22 04:39:37;;;;;;;0.10;0.10;;;10.00;99.90;;;;;;5010301;28;20497;-67
2023/03/22 04:42:03;;;;;;;5.53;2.28;;;10.00;99.90;;;;;;5000481;28;20137;-67
2023/03/22 04:44:28;;;;;;;2.17;2.08;;;10.00;99.90;;;;;;5002505;28;20560;-67
2023/03/22 04:46:54;;;;;;;0.40;0.38;;;10.10;99.90;;;;;;5007807;28;20081;-67
2023/03/22 04:49:20;;;;;;;1.65;1.55;;;10.10;99.90;;;;;;4999235;28;20117;-67
2023/03/22 04:51:46;;;;;;;0.10;0.10;;;10.10;99.90;;;;;;5010117;28;20112;-67
2023/03/22 04:54:11;;;;;;;0.10;0.10;;;10.10;99.90;;;;;;5003058;28;20486;-67
2023/03/22 04:56:37;;;;;;;1.45;0.65;;;10.10;99.90;;;;;;5001977;28;20053;-67
2023/03/22 04:59:03;;;;;;;0.60;0.60;;;10.10;99.90;;;;;;5010804;28;20053;-67
2023/03/22 05:01:28;;;;;;;0.65;0.38;;;10.00;99.90;;;;;;5011693;28;20050;-67
2023/03/22 05:03:54;;;;;;;2.13;0.50;;;10.00;99.90;;;;;;4999593;28;20462;-67
2023/03/22 05:06:19;;;;;;;1.67;1.42;;;10.00;99.90;;;;;;4999931;28;20034;-67
2023/03/22 05:08:45;;;;;;;0.10;0.10;;;10.00;99.90;;;;;;4999094;28;20532;-67
2023/03/22 05:11:13;;;;;;;0.05;0.05;;;10.00;99.90;;;;;;5010616;28;20091;-67
2023/03/22 05:13:39;;;;;;;0.88;0.88;;;10.00;99.90;;;;;;5003904;28;20097;-67
2023/03/22 05:16:05;;;;;;;0.20;0.20;;;10.00;99.90;;;;;;4999782;28;20037;-67
2023/03/22 05:18:31;;;;;;;0.13;0.13;;;10.00;99.90;;;;;;5004137;28;20072;-67
2023/03/22 05:20:58;;;;;;;0.20;0.20;;;9.90;99.90;;;;;;5010563;28;20085;-67
2023/03/22 05:23:24;;;;;;;0.55;0.55;;;9.90;99.90;;;;;;5003403;28;20038;-67
2023/03/22 05:25:51;;;;;;;0.10;0.10;;;9.90;99.90;;;;;;4998904;28;20134;-67
2023/03/22 05:28:20;;;;;;;0.10;0.10;;;9.90;99.90;;;;;;5001969;28;20042;-67
2023/03/22 05:30:47;;;;;;;3.90;2.53;;;9.90;99.90;;;;;;4998336;28;20103;-67
2023/03/22 05:33:13;;;;;;;0.20;0.20;;;10.00;99.90;;;;;;5006041;28;20054;-67
2023/03/22 05:35:40;;;;;;;2.30;1.17;;;10.00;99.90;;;;;;5011219;28;20034;-67
2023/03/22 05:38:06;;;;;;;0.88;0.88;;;10.00;99.90;;;;;;5001445;28;20053;-67
2023/03/22 05:40:33;;;;;;;0.20;0.20;;;10.00;99.90;;;;;;4995823;28;20124;-67
2023/03/22 05:42:59;;;;;;;0.20;0.20;;;10.00;99.90;;;;;;5009663;28;20050;-67
2023/03/22 05:45:25;;;;;;;0.10;0.10;;;10.00;99.90;;;;;;5008043;28;20054;-67
2023/03/22 05:47:52;;;;;;;0.10;0.10;;;10.00;99.90;;;;;;4993824;28;20085;-67
2023/03/22 05:50:20;;;;;;;0.20;0.20;;;10.00;99.90;;;;;;5006644;28;20057;-67
2023/03/22 05:52:46;;;;;;;3.53;1.75;;;10.00;99.90;;;;;;5000994;28;20049;-67
2023/03/22 05:55:16;;;;;;;0.10;0.10;;;10.00;99.90;;;;;;4997224;28;20037;-67
2023/03/22 05:57:42;;;;;;;5.68;2.25;;;10.00;99.90;;;;;;4999274;28;20074;-67
2023/03/22 06:00:12;;;;;;;1.02;0.85;;;10.00;99.90;;;;;;5008223;28;20823;-67
2023/03/22 06:02:42;;;;;;;0.75;0.75;;;10.00;99.90;;;;;;5001761;28;20053;-67
2023/03/22 06:05:10;;;;;;;2.83;1.77;;;10.00;99.90;;;;;;5005576;28;20073;-67
2023/03/22 06:07:36;;;;;;;0.63;0.63;;;10.00;99.90;;;;;;4995716;28;20054;-67
2023/03/22 06:10:04;;;;;;;0.30;0.30;;;10.00;99.90;;;;;;5009475;28;20092;-67
2023/03/22 06:12:30;;;;;;;1.08;1.08;;;10.00;99.90;;;;;;5007199;28;20049;-67
2023/03/22 06:14:56;;;;;;;0.40;0.38;;;10.00;99.90;;;;;;4992877;28;20128;-67
2023/03/22 06:17:22;;;;;;;1.58;0.95;;;10.00;99.90;;;;;;5010502;28;20073;-67
2023/03/22 06:19:49;;;;;;;0.95;0.95;;;10.00;99.90;;;;;;4992677;28;20056;-67
2023/03/22 06:22:14;;;;;;;0.20;0.20;;;10.00;99.90;;;;;;4993587;28;20065;-67
2023/03/22 06:24:41;;;;;;;1.92;1.13;;;10.00;99.90;;;;;;4995889;28;20412;-67
2023/03/22 06:27:07;;;;;;;3.20;1.17;;;10.00;99.90;;;;;;4996993;28;20058;-67
2023/03/22 06:29:33;;;;;;;0.68;0.68;;;10.00;99.90;;;;;;5008777;28;20038;-67
2023/03/22 06:31:59;;;;;;;0.65;0.65;;;10.10;99.90;;;;;;5007204;28;20045;-67
2023/03/22 06:34:25;;;;;;;0.13;0.13;;;10.10;99.90;;;;;;4997368;28;20096;-67
2023/03/22 06:36:54;;;;;;;0.10;0.10;;;10.10;99.90;;;;;;5005416;28;20144;-67
2023/03/22 06:39:20;;;;;;;0.30;0.30;;;10.20;99.90;;;;;;5003109;28;20073;-67
2023/03/22 06:41:46;;;;;;;1.00;0.93;;;10.10;99.90;;;;;;4996983;28;20430;-67
2023/03/22 06:44:11;;;;;;;0.10;0.10;;;10.20;99.90;;;;;;4994540;28;20061;-67
2023/03/22 06:46:37;;;;;;;0.22;0.22;;;10.20;99.90;;;;;;5000453;28;20422;-67
2023/03/22 06:49:03;;;;;;;0.30;0.30;;;10.20;99.90;;;;;;4997999;28;20045;-67
2023/03/22 06:51:29;;;;;;;0.43;0.43;;;10.20;99.90;;;;;;5008614;28;20041;-67
2023/03/22 06:53:54;;;;;;;0.10;0.10;;;10.20;99.90;;;;;;4997644;28;20100;-67
2023/03/22 06:56:20;;;;;;;0.30;0.30;;;10.30;99.90;;;;;;5002654;28;20038;-67
2023/03/22 06:58:46;;;;;;;4.28;2.00;;;10.30;99.90;;;;;;5005229;28;20049;-67
2023/03/22 07:01:12;;;;;;;0.10;0.10;;;10.30;99.90;;;;;;5002024;28;20046;-67
2023/03/22 07:03:38;;;;;;;0.68;0.68;;;10.30;99.90;;;;;;5008039;28;20497;-67
2023/03/22 07:06:06;;;;;;;0.47;0.47;;;10.30;99.90;;;;;;5005249;28;20840;-67
2023/03/22 07:08:33;;;;;;;0.38;0.38;;;10.30;99.90;;;;;;4997222;28;20485;-67
2023/03/22 07:10:59;;;;;;;0.17;0.17;;;10.30;99.90;;;;;;5003934;28;20497;-67
2023/03/22 07:13:25;;;;;;;0.57;0.57;;;10.30;99.90;;;;;;4989350;28;20054;-67
2023/03/22 07:15:55;;;;;;;1.20;1.15;;;10.40;99.90;;;;;;5002972;28;20144;-67
2023/03/22 07:18:20;;;;;;;0.20;0.20;;;10.40;99.90;;;;;;4996497;28;20384;-67
2023/03/22 07:20:46;;;;;;;0.40;0.40;;;10.40;99.90;;;;;;4992156;28;20045;-67
2023/03/22 07:23:11;;;;;;;0.30;0.30;;;10.40;99.90;;;;;;5004501;28;20048;-67
2023/03/22 07:25:37;;;;;;;0.22;0.22;;;10.40;99.90;;;;;;5008746;28;20046;-67
2023/03/22 07:28:03;;;;;;;3.40;1.40;;;10.40;99.90;;;;;;4997879;28;20453;-67
2023/03/22 07:30:28;;;;;;;0.10;0.10;;;10.40;99.90;;;;;;4995315;28;20041;-67
2023/03/22 07:32:54;;;;;;;0.10;0.10;;;10.40;99.90;;;;;;5006977;28;20444;-67
2023/03/22 07:35:20;;;;;;;1.98;0.80;;;10.40;99.90;;;;;;5008653;28;20040;-67
2023/03/22 07:37:47;;;;;;;1.63;1.52;;;10.40;99.90;;;;;;4999313;28;20043;-67
2023/03/22 07:40:13;;;;;;;0.10;0.10;;;10.50;99.90;;;;;;5007527;28;20049;-67
2023/03/22 07:42:38;;;;;;;1.08;1.08;;;10.50;99.90;;;;;;5013438;28;20045;-67
2023/03/22 07:45:05;;;;;;;0.30;0.22;;;10.50;99.90;;;;;;5005009;28;20050;-67
2023/03/22 07:47:31;;;;;;;0.20;0.20;;;10.50;99.90;;;;;;5008829;28;20516;-67
2023/03/22 07:49:56;;;;;;;0.17;0.17;;;10.50;99.90;;;;;;5012328;28;20042;-67
2023/03/22 07:52:22;;;;;;;0.35;0.35;;;10.50;99.90;;;;;;5010596;28;20065;-67
2023/03/22 07:54:47;;;;;;;3.95;1.55;;;10.60;99.90;;;;;;5002010;28;20049;-67
2023/03/22 07:57:13;;;;;;;0.20;0.20;;;10.70;99.90;;;;;;5009035;28;20042;-67
2023/03/22 07:59:39;;;;;;;0.17;0.17;;;10.70;99.90;;;;;;5013152;28;20120;-67
2023/03/22 08:02:05;;;;;;;2.83;1.45;;;10.70;99.90;;;;;;5006636;28;20045;-67
2023/03/22 08:04:31;;;;;;;1.48;1.10;;;10.70;99.90;;;;;;4998913;28;20066;-67
2023/03/22 08:06:58;;;;;;;0.08;0.08;;;10.80;99.90;;;;;;5012048;28;20469;-67
2023/03/22 08:09:25;;;;;;;2.35;1.50;;;10.70;99.90;;;;;;5011903;28;20048;-67
2023/03/22 08:11:51;;;;;;;0.32;0.32;;;10.80;99.90;;;;;;4997634;28;20104;-67
2023/03/22 08:14:16;;;;;;;0.30;0.30;;;10.80;99.90;;;;;;5005214;28;20466;-67
2023/03/22 08:16:43;;;;;;;0.00;0.00;;;10.80;99.90;;;;;;5008937;28;20045;-67
2023/03/22 08:19:09;;;;;;;0.20;0.20;;;10.80;99.90;;;;;;5003648;28;20046;-67
2023/03/22 08:21:36;;;;;;;0.10;0.10;;;10.80;99.90;;;;;;5009616;28;20060;-67
2023/03/22 08:24:02;;;;;;;0.43;0.43;;;10.80;99.90;;;;;;5004652;28;20097;-67
2023/03/22 08:26:28;;;;;;;0.10;0.10;;;10.80;99.90;;;;;;5000431;28;20033;-67
2023/03/22 08:28:53;;;;;;;0.75;0.75;;;10.90;99.90;;;;;;5008611;28;20424;-67
2023/03/22 08:31:19;;;;;;;0.00;0.00;;;10.90;99.90;;;;;;5002458;28;20045;-67
2023/03/22 08:33:45;;;;;;;1.98;1.20;;;10.90;99.90;;;;;;5012465;28;20042;-67
2023/03/22 08:36:16;;;;;;;3.40;1.08;;;10.90;99.90;;;;;;4996887;28;20046;-66
2023/03/22 08:38:43;;;;;;;0.60;0.60;;;10.90;99.90;;;;;;5008186;28;20053;-66
2023/03/22 08:41:09;;;;;;;1.75;1.65;;;10.80;99.90;;;;;;5012267;28;20659;-67
2023/03/22 08:43:35;;;;;;;0.10;0.10;;;10.80;99.90;;;;;;5009323;28;20054;-67
2023/03/22 08:46:01;;;;;;;1.65;1.13;;;10.80;99.90;;;;;;5003887;28;20772;-67
2023/03/22 08:48:29;;;;;;;0.98;0.93;;;10.70;99.90;;;;;;5002038;28;20494;-67
2023/03/22 08:50:55;;;;;;;0.75;0.75;;;10.70;99.90;;;;;;5000908;28;20046;-67
2023/03/22 08:53:21;;;;;;;0.52;0.52;;;10.60;99.90;;;;;;4995300;28;20038;-67
2023/03/22 08:55:47;;;;;;;0.73;0.73;;;10.60;99.90;;;;;;5012409;28;20049;-67
2023/03/22 08:58:15;;;;;;;0.30;0.30;;;10.60;99.90;;;;;;5009770;28;20042;-67
2023/03/22 09:00:42;;;;;;;0.00;0.00;;;10.60;99.90;;;;;;5004653;28;20043;-67
2023/03/22 09:03:08;;;;;;;2.85;0.75;;;10.50;99.90;;;;;;5007302;28;20046;-67
2023/03/22 09:05:33;;;;;;;0.20;0.20;;;10.40;99.90;;;;;;5011043;28;20068;-67
2023/03/22 09:08:00;;;;;;;0.13;0.13;;;10.50;99.90;;;;;;4996408;28;20043;-67
2023/03/22 09:10:27;;;;;;;0.50;0.50;;;10.40;99.90;;;;;;5005762;28;20050;-66
2023/03/22 09:12:52;;;;;;;0.13;0.13;;;10.40;99.90;;;;;;5004857;28;20046;-67
2023/03/22 09:15:18;;;;;;;0.40;0.40;;;10.50;99.90;;;;;;5010836;28;20061;-66
2023/03/22 09:17:44;;;;;;;0.25;0.25;;;10.40;99.90;;;;;;5001134;28;20477;-67
2023/03/22 09:20:10;;;;;;;0.10;0.10;;;10.40;99.90;;;;;;5000580;28;20041;-67
2023/03/22 09:22:36;;;;;;;0.63;0.63;;;10.40;99.90;;;;;;5000377;28;20165;-66
2023/03/22 09:25:02;;;;;;;4.75;1.75;;;10.30;99.90;;;;;;5010384;28;20046;-67
2023/03/22 09:27:28;;;;;;;0.00;0.00;;;10.30;99.90;;;;;;5004051;28;20118;-67
2023/03/22 09:29:54;;;;;;;0.10;0.10;;;10.20;99.90;;;;;;4998801;28;20133;-67
2023/03/22 09:32:20;;;;;;;1.20;0.70;;;10.20;99.90;;;;;;5005394;28;20033;-68
2023/03/22 09:34:45;;;;;;;3.40;2.53;;;10.20;99.90;;;;;;5003128;28;20507;-68
2023/03/22 09:37:11;;;;;;;0.10;0.10;;;10.10;99.90;;;;;;5008052;28;20864;-68
2023/03/22 09:39:38;;;;;;;0.10;0.10;;;10.10;99.90;;;;;;5004979;28;20252;-67
2023/03/22 09:42:24;;;;;;;0.10;0.10;;;10.10;99.90;;;;;;5000750;28;20097;-68
2023/03/22 09:44:51;;;;;;;0.68;0.68;;;10.10;99.90;;;;;;4994085;28;20054;-68
2023/03/22 09:47:22;;;;;;;0.73;0.63;;;10.00;99.90;;;;;;5007335;28;20053;-67
2023/03/22 09:49:51;;;;;;;0.13;0.13;;;10.00;99.90;;;;;;5011289;28;20145;-68
2023/03/22 09:52:17;;;;;;;0.10;0.10;;;10.00;99.90;;;;;;5006919;28;20730;-68
2023/03/22 09:54:45;;;;;;;1.05;1.05;;;10.00;99.90;;;;;;5011208;28;20126;-68
2023/03/22 09:57:32;;;;;;;0.70;0.38;;;10.00;99.90;;;;;;5007587;28;20042;-69
2023/03/22 10:00:15;;;;;;;0.80;0.80;;;10.00;99.90;;;;;;5001987;28;20046;-69
2023/03/22 10:03:11;;;;;;;1.55;0.70;;;10.00;99.90;;;;;;5002377;28;20050;-69
2023/03/22 10:05:47;;;;;;;0.10;0.10;;;10.00;99.90;;;;;;5000778;28;20096;-69
2023/03/22 10:08:15;;;;;;;0.10;0.10;;;10.00;99.90;;;;;;5003958;28;20061;-69
2023/03/22 10:10:42;;;;;;;0.20;0.15;;;10.00;99.90;;;;;;5002438;28;20080;-69
2023/03/22 10:13:36;;;;;;;0.55;0.55;;;9.90;99.90;;;;;;5006682;28;20049;-68
2023/03/22 10:16:05;;;;;;;0.10;0.10;;;9.90;99.90;;;;;;5005406;28;20405;-69
2023/03/22 10:18:48;;;;;;;0.00;0.00;;;9.90;99.90;;;;;;5001198;28;20125;-69
2023/03/22 10:21:16;;;;;;;0.10;0.10;;;10.00;99.90;;;;;;5008154;28;20509;-70
2023/03/22 10:23:48;;;;;;;0.52;0.52;;;9.90;99.90;;;;;;5010050;28;20336;-70
2023/03/22 10:26:25;;;;;;;0.10;0.10;;;9.90;99.90;;;;;;4995479;28;20073;-70
2023/03/22 10:29:02;;;;;;;0.10;0.10;;;9.90;99.90;;;;;;5001799;28;20045;-71
2023/03/22 10:31:28;;;;;;;0.90;0.90;;;9.90;99.90;;;;;;5010267;28;20045;-71
2023/03/22 10:34:10;;;;;;;0.22;0.22;;;9.90;99.90;;;;;;4998151;28;20048;-71
2023/03/22 10:36:39;;;;;;;0.28;0.28;;;9.90;99.90;;;;;;5003254;28;20214;-70
2023/03/22 10:39:32;;;;;;;0.00;0.00;;;9.90;99.90;;;;;;4995215;28;20113;-70
2023/03/22 10:42:02;;;;;;;0.10;0.10;;;10.00;99.90;;;;;;5004376;28;20501;-71
2023/03/22 10:44:34;;;;;;;3.42;1.15;;;10.00;99.90;;;;;;4998660;28;20050;-71
2023/03/22 10:47:06;;;;;;;0.20;0.20;;;10.00;99.90;;;;;;5005818;28;20403;-71
2023/03/22 10:49:37;;;;;;;0.55;0.52;;;10.00;99.90;;;;;;5008233;28;20053;-71
2023/03/22 10:52:24;;;;;;;0.10;0.10;;;10.00;99.90;;;;;;4998241;28;20061;-71
2023/03/22 10:54:50;;;;;;;0.10;0.10;;;10.10;99.90;;;;;;5003918;28;20057;-71
2023/03/22 10:57:16;;;;;;;0.05;0.05;;;10.10;99.90;;;;;;5007066;28;20210;-71
2023/03/22 11:00:09;;;;;;;0.10;0.10;;;10.10;99.90;;;;;;5008474;28;20077;-71
2023/03/22 11:02:46;;;;;;;0.10;0.10;;;10.10;99.90;;;;;;4994194;28;20054;-71
2023/03/22 11:05:21;;;;;;;0.00;0.00;;;10.10;99.90;;;;;;5000328;28;20378;-71
2023/03/22 11:07:47;;;;;;;0.00;0.00;;;10.10;99.90;;;;;;5006355;28;20552;-71
2023/03/22 11:10:31;;;;;;;0.00;0.00;;;10.10;99.90;;;;;;4995492;28;20334;-71
2023/03/22 11:13:06;;;;;;;0.65;0.65;;;10.20;99.90;;;;;;5000573;28;20042;-70
2023/03/22 11:15:34;;;;;;;0.10;0.10;;;10.10;99.90;;;;;;5002661;28;20406;-70
2023/03/22 11:18:05;;;;;;;0.00;0.00;;;10.20;99.90;;;;;;5008202;28;20042;-68
2023/03/22 11:20:33;;;;;;;0.40;0.40;;;10.10;99.90;;;;;;5006936;28;20121;-70
2023/03/22 11:23:04;;;;;;;0.10;0.10;;;10.20;99.90;;;;;;5007106;28;20080;-70
2023/03/22 11:25:45;;;;;;;0.20;0.20;;;10.20;99.90;;;;;;5012510;28;20041;-70
2023/03/22 11:28:24;;;;;;;0.10;0.10;;;10.20;99.90;;;;;;5008959;28;20477;-70
2023/03/22 11:31:11;;;;;;;0.10;0.10;;;10.20;99.90;;;;;;5002183;28;20108;-70
2023/03/22 11:34:04;;;;;;;0.10;0.10;;;10.30;99.90;;;;;;5011155;28;20393;-70
2023/03/22 11:36:30;;;;;;;0.30;0.30;;;10.20;99.90;;;;;;5012590;28;20057;-70
2023/03/22 11:39:04;;;;;;;0.10;0.10;;;10.30;99.90;;;;;;5001222;28;20050;-70
2023/03/22 11:41:35;;;;;;;0.20;0.20;;;10.30;99.90;;;;;;5005241;28;20085;-70
2023/03/22 11:44:09;;;;;;;0.10;0.10;;;10.30;99.90;;;;;;4999024;28;20057;-70
2023/03/22 11:46:36;;;;;;;0.20;0.20;;;10.30;99.90;;;;;;4997598;28;20042;-70
2023/03/22 11:49:06;;;;;;;0.10;0.10;;;10.20;99.90;;;;;;5004779;28;20049;-70
2023/03/22 11:51:34;;;;;;;0.00;0.00;;;10.30;99.90;;;;;;4999476;28;20533;-69
2023/03/22 11:54:24;;;;;;;0.10;0.10;;;10.30;99.90;;;;;;5001909;28;20060;-69
2023/03/22 11:56:50;;;;;;;0.20;0.20;;;10.20;99.90;;;;;;5002413;28;20054;-70
2023/03/22 11:59:29;;;;;;;0.10;0.10;;;10.30;99.90;;;;;;5009803;28;20044;-69
2023/03/22 12:02:28;;;;;;;2.53;0.95;;;10.30;99.90;;;;;;5011979;28;20551;-69
2023/03/22 12:05:20;;;;;;;0.10;0.10;;;10.20;99.90;;;;;;5002395;28;20089;-70
2023/03/22 12:07:50;;;;;;;0.25;0.25;;;10.20;99.90;;;;;;5011455;28;20402;-70
2023/03/22 12:10:32;;;;;;;0.68;0.68;;;10.20;99.90;;;;;;4998075;28;20393;-70
2023/03/22 12:13:29;;;;;;;0.90;0.90;;;10.20;99.90;;;;;;5005838;28;20045;-70
2023/03/22 12:16:01;;;;;;;0.10;0.10;;;10.30;99.90;;;;;;5001680;28;20042;-70
2023/03/22 12:19:17;;;;;;;0.00;0.00;;;10.30;99.90;;;;;;5011439;28;20080;-70
2023/03/22 12:21:45;;;;;;;0.35;0.35;;;10.30;99.90;;;;;;4940400;28;20138;-70
2023/03/22 12:24:24;;;;;;;0.20;0.20;;;10.20;99.90;;;;;;4988074;28;20062;-70
2023/03/22 12:26:54;;;;;;;0.10;0.10;;;10.20;99.90;;;;;;5005188;28;20050;-70
2023/03/22 12:29:20;;;;;;;0.10;0.10;;;10.20;99.90;;;;;;4998910;28;20038;-70
2023/03/22 12:32:03;;;;;;;0.30;0.30;;;10.20;99.90;;;;;;5004085;28;20130;-70
2023/03/22 12:34:41;;;;;;;0.10;0.10;;;10.20;99.90;;;;;;5010640;28;20076;-71
2023/03/22 12:37:11;;;;;;;0.00;0.00;;;10.20;99.90;;;;;;5009542;28;20081;-70
2023/03/22 12:39:46;;;;;;;1.52;0.25;;;10.20;99.90;;;;;;5004907;28;20050;-70
2023/03/22 12:42:20;;;;;;;1.35;1.25;;;10.20;99.90;;;;;;4997892;28;20046;-70
2023/03/22 12:44:49;;;;;;;0.55;0.40;;;10.20;99.90;;;;;;5006695;28;20065;-70
2023/03/22 12:47:17;;;;;;;1.10;1.02;;;10.20;99.90;;;;;;5012616;28;20050;-70
2023/03/22 12:49:51;;;;;;;0.57;0.35;;;10.30;99.90;;;;;;5009554;28;20250;-70
2023/03/22 12:52:22;;;;;;;0.10;0.10;;;10.30;99.90;;;;;;4994276;28;20073;-70
2023/03/22 12:54:51;;;;;;;0.10;0.10;;;10.20;99.90;;;;;;5002816;28;20092;-70
2023/03/22 12:57:17;;;;;;;0.20;0.20;;;10.20;99.90;;;;;;5009092;28;20073;-71
2023/03/22 12:59:47;;;;;;;1.77;1.65;;;10.30;99.90;;;;;;5002191;28;20049;-70
2023/03/22 13:02:30;;;;;;;0.15;0.15;;;10.30;99.90;;;;;;5006158;28;20037;-70
2023/03/22 13:04:58;;;;;;;0.55;0.55;;;10.30;99.90;;;;;;4999350;28;20110;-71